sensor_id;sensor_type;location;lat;lon;timestamp;P1;durP1;ratioP1;P2;durP2;ratioP2
31652;SDS011;18261;53.648;9.910;2023-10-08T00:02:44;26.85;;;6.68;;
31652;SDS011;18261;53.648;9.910;2023-10-08T00:05:10;27.70;;;7.10;;
31652;SDS011;18261;53.648;9.910;2023-10-08T00:07:41;22.92;;;6.80;;
31652;SDS011;18261;53.648;9.910;2023-10-08T00:10:07;24.20;;;7.35;;
31652;SDS011;18261;53.648;9.910;2023-10-08T00:12:34;18.92;;;6.00;;
31652;SDS011;18261;53.648;9.910;2023-10-08T00:15:00;22.15;;;7.07;;
31652;SDS011;18261;53.648;9.910;2023-10-08T00:17:26;24.45;;;6.95;;
31652;SDS011;18261;53.648;9.910;2023-10-08T00:19:51;28.77;;;5.93;;
31652;SDS011;18261;53.648;9.910;2023-10-08T00:22:18;27.35;;;6.57;;
31652;SDS011;18261;53.648;9.910;2023-10-08T00:24:44;20.67;;;5.95;;
31652;SDS011;18261;53.648;9.910;2023-10-08T00:27:12;22.48;;;6.07;;
31652;SDS011;18261;53.648;9.910;2023-10-08T00:29:42;23.42;;;4.93;;
31652;SDS011;18261;53.648;9.910;2023-10-08T00:32:09;23.63;;;5.35;;
31652;SDS011;18261;53.648;9.910;2023-10-08T00:34:41;25.25;;;4.80;;
31652;SDS011;18261;53.648;9.910;2023-10-08T00:37:08;23.45;;;5.13;;
31652;SDS011;18261;53.648;9.910;2023-10-08T00:39:35;31.27;;;5.13;;
31652;SDS011;18261;53.648;9.910;2023-10-08T00:42:03;18.20;;;4.10;;
31652;SDS011;18261;53.648;9.910;2023-10-08T00:44:33;21.20;;;4.47;;
31652;SDS011;18261;53.648;9.910;2023-10-08T00:47:20;26.13;;;4.45;;
31652;SDS011;18261;53.648;9.910;2023-10-08T00:49:51;15.48;;;4.05;;
31652;SDS011;18261;53.648;9.910;2023-10-08T00:52:28;21.83;;;4.57;;
31652;SDS011;18261;53.648;9.910;2023-10-08T00:54:55;18.50;;;4.10;;
31652;SDS011;18261;53.648;9.910;2023-10-08T00:57:34;18.52;;;3.90;;
31652;SDS011;18261;53.648;9.910;2023-10-08T01:00:01;17.83;;;3.45;;
31652;SDS011;18261;53.648;9.910;2023-10-08T01:02:29;26.33;;;4.15;;
31652;SDS011;18261;53.648;9.910;2023-10-08T01:05:10;15.93;;;3.50;;
31652;SDS011;18261;53.648;9.910;2023-10-08T01:07:37;25.20;;;4.00;;
31652;SDS011;18261;53.648;9.910;2023-10-08T01:10:07;21.50;;;3.97;;
31652;SDS011;18261;53.648;9.910;2023-10-08T01:12:35;18.55;;;3.60;;
31652;SDS011;18261;53.648;9.910;2023-10-08T01:15:14;17.20;;;3.50;;
31652;SDS011;18261;53.648;9.910;2023-10-08T01:17:53;14.13;;;3.28;;
31652;SDS011;18261;53.648;9.910;2023-10-08T01:20:25;20.02;;;3.67;;
31652;SDS011;18261;53.648;9.910;2023-10-08T01:23:08;20.92;;;4.15;;
31652;SDS011;18261;53.648;9.910;2023-10-08T01:25:38;17.70;;;3.38;;
31652;SDS011;18261;53.648;9.910;2023-10-08T01:28:05;17.15;;;3.42;;
31652;SDS011;18261;53.648;9.910;2023-10-08T01:33:12;14.70;;;3.42;;
31652;SDS011;18261;53.648;9.910;2023-10-08T01:35:46;18.20;;;3.87;;
31652;SDS011;18261;53.648;9.910;2023-10-08T01:38:13;19.05;;;3.78;;
31652;SDS011;18261;53.648;9.910;2023-10-08T01:40:41;15.35;;;3.45;;
31652;SDS011;18261;53.648;9.910;2023-10-08T01:43:08;19.70;;;3.83;;
31652;SDS011;18261;53.648;9.910;2023-10-08T01:45:35;17.58;;;3.40;;
31652;SDS011;18261;53.648;9.910;2023-10-08T01:48:04;19.45;;;3.88;;
31652;SDS011;18261;53.648;9.910;2023-10-08T01:50:31;15.80;;;3.42;;
31652;SDS011;18261;53.648;9.910;2023-10-08T01:52:59;13.10;;;2.63;;
31652;SDS011;18261;53.648;9.910;2023-10-08T01:55:25;17.10;;;3.28;;
31652;SDS011;18261;53.648;9.910;2023-10-08T01:57:51;16.02;;;3.35;;
31652;SDS011;18261;53.648;9.910;2023-10-08T02:00:18;19.15;;;3.45;;
31652;SDS011;18261;53.648;9.910;2023-10-08T02:02:47;17.30;;;3.45;;
31652;SDS011;18261;53.648;9.910;2023-10-08T02:05:15;19.38;;;3.40;;
31652;SDS011;18261;53.648;9.910;2023-10-08T02:07:44;17.10;;;3.63;;
31652;SDS011;18261;53.648;9.910;2023-10-08T02:10:10;14.38;;;3.55;;
31652;SDS011;18261;53.648;9.910;2023-10-08T02:12:39;13.98;;;3.22;;
31652;SDS011;18261;53.648;9.910;2023-10-08T02:15:06;17.50;;;3.63;;
31652;SDS011;18261;53.648;9.910;2023-10-08T02:17:32;15.73;;;3.28;;
31652;SDS011;18261;53.648;9.910;2023-10-08T02:19:59;17.25;;;3.10;;
31652;SDS011;18261;53.648;9.910;2023-10-08T02:22:25;11.65;;;2.60;;
31652;SDS011;18261;53.648;9.910;2023-10-08T02:24:51;18.27;;;2.70;;
31652;SDS011;18261;53.648;9.910;2023-10-08T02:27:18;13.23;;;3.10;;
31652;SDS011;18261;53.648;9.910;2023-10-08T02:29:44;14.90;;;2.67;;
31652;SDS011;18261;53.648;9.910;2023-10-08T02:32:10;13.40;;;2.80;;
31652;SDS011;18261;53.648;9.910;2023-10-08T02:34:36;11.18;;;2.97;;
31652;SDS011;18261;53.648;9.910;2023-10-08T02:37:02;14.30;;;2.90;;
31652;SDS011;18261;53.648;9.910;2023-10-08T02:39:29;16.92;;;2.90;;
31652;SDS011;18261;53.648;9.910;2023-10-08T02:41:57;17.20;;;3.08;;
31652;SDS011;18261;53.648;9.910;2023-10-08T02:44:25;17.52;;;3.45;;
31652;SDS011;18261;53.648;9.910;2023-10-08T02:46:52;15.38;;;3.30;;
31652;SDS011;18261;53.648;9.910;2023-10-08T02:49:20;11.35;;;2.75;;
31652;SDS011;18261;53.648;9.910;2023-10-08T02:51:48;16.27;;;2.88;;
31652;SDS011;18261;53.648;9.910;2023-10-08T02:54:15;15.00;;;2.90;;
31652;SDS011;18261;53.648;9.910;2023-10-08T02:56:49;15.38;;;3.65;;
31652;SDS011;18261;53.648;9.910;2023-10-08T02:59:17;11.27;;;2.97;;
31652;SDS011;18261;53.648;9.910;2023-10-08T03:01:46;14.07;;;3.00;;
31652;SDS011;18261;53.648;9.910;2023-10-08T03:04:14;12.82;;;2.70;;
31652;SDS011;18261;53.648;9.910;2023-10-08T03:06:46;14.70;;;3.25;;
31652;SDS011;18261;53.648;9.910;2023-10-08T03:09:19;16.83;;;2.35;;
31652;SDS011;18261;53.648;9.910;2023-10-08T03:14:18;11.77;;;3.00;;
31652;SDS011;18261;53.648;9.910;2023-10-08T03:16:54;12.35;;;2.42;;
31652;SDS011;18261;53.648;9.910;2023-10-08T03:19:32;11.45;;;2.33;;
31652;SDS011;18261;53.648;9.910;2023-10-08T03:22:00;8.73;;;2.00;;
31652;SDS011;18261;53.648;9.910;2023-10-08T03:24:29;11.65;;;2.50;;
31652;SDS011;18261;53.648;9.910;2023-10-08T03:27:02;16.75;;;2.72;;
31652;SDS011;18261;53.648;9.910;2023-10-08T03:29:32;14.68;;;2.50;;
31652;SDS011;18261;53.648;9.910;2023-10-08T03:32:05;8.88;;;2.22;;
31652;SDS011;18261;53.648;9.910;2023-10-08T03:34:31;9.98;;;2.40;;
31652;SDS011;18261;53.648;9.910;2023-10-08T03:36:59;12.00;;;2.35;;
31652;SDS011;18261;53.648;9.910;2023-10-08T03:39:30;14.40;;;1.85;;
31652;SDS011;18261;53.648;9.910;2023-10-08T03:42:18;10.65;;;2.65;;
31652;SDS011;18261;53.648;9.910;2023-10-08T03:44:47;9.40;;;2.03;;
31652;SDS011;18261;53.648;9.910;2023-10-08T03:47:17;11.48;;;1.90;;
31652;SDS011;18261;53.648;9.910;2023-10-08T03:49:44;9.85;;;2.03;;
31652;SDS011;18261;53.648;9.910;2023-10-08T03:52:11;15.20;;;3.20;;
31652;SDS011;18261;53.648;9.910;2023-10-08T03:54:38;7.10;;;2.22;;
31652;SDS011;18261;53.648;9.910;2023-10-08T03:57:13;21.42;;;3.38;;
31652;SDS011;18261;53.648;9.910;2023-10-08T03:59:43;10.35;;;2.65;;
31652;SDS011;18261;53.648;9.910;2023-10-08T04:02:13;8.15;;;2.97;;
31652;SDS011;18261;53.648;9.910;2023-10-08T04:04:41;11.13;;;2.20;;
31652;SDS011;18261;53.648;9.910;2023-10-08T04:07:15;12.02;;;2.17;;
31652;SDS011;18261;53.648;9.910;2023-10-08T04:10:04;12.38;;;1.90;;
31652;SDS011;18261;53.648;9.910;2023-10-08T04:12:33;9.13;;;2.40;;
31652;SDS011;18261;53.648;9.910;2023-10-08T04:15:08;13.63;;;2.20;;
31652;SDS011;18261;53.648;9.910;2023-10-08T04:17:37;17.23;;;2.33;;
31652;SDS011;18261;53.648;9.910;2023-10-08T04:20:12;8.95;;;2.10;;
31652;SDS011;18261;53.648;9.910;2023-10-08T04:22:58;11.50;;;2.60;;
31652;SDS011;18261;53.648;9.910;2023-10-08T04:25:27;8.68;;;2.10;;
31652;SDS011;18261;53.648;9.910;2023-10-08T04:27:54;11.65;;;2.60;;
31652;SDS011;18261;53.648;9.910;2023-10-08T04:30:23;8.00;;;2.05;;
31652;SDS011;18261;53.648;9.910;2023-10-08T04:32:53;11.18;;;2.45;;
31652;SDS011;18261;53.648;9.910;2023-10-08T04:35:19;5.97;;;2.47;;
31652;SDS011;18261;53.648;9.910;2023-10-08T04:37:50;13.95;;;2.63;;
31652;SDS011;18261;53.648;9.910;2023-10-08T04:40:17;10.50;;;2.13;;
31652;SDS011;18261;53.648;9.910;2023-10-08T04:42:47;8.55;;;2.58;;
31652;SDS011;18261;53.648;9.910;2023-10-08T04:45:13;7.93;;;2.10;;
31652;SDS011;18261;53.648;9.910;2023-10-08T04:47:39;5.63;;;1.90;;
31652;SDS011;18261;53.648;9.910;2023-10-08T04:50:08;11.25;;;2.15;;
31652;SDS011;18261;53.648;9.910;2023-10-08T04:52:43;12.75;;;2.22;;
31652;SDS011;18261;53.648;9.910;2023-10-08T04:55:23;10.48;;;2.15;;
31652;SDS011;18261;53.648;9.910;2023-10-08T04:57:53;12.75;;;2.38;;
31652;SDS011;18261;53.648;9.910;2023-10-08T05:00:20;7.60;;;2.20;;
31652;SDS011;18261;53.648;9.910;2023-10-08T05:03:06;10.48;;;2.60;;
31652;SDS011;18261;53.648;9.910;2023-10-08T05:05:39;15.95;;;2.35;;
31652;SDS011;18261;53.648;9.910;2023-10-08T05:08:32;9.48;;;2.08;;
31652;SDS011;18261;53.648;9.910;2023-10-08T05:11:12;11.38;;;1.95;;
31652;SDS011;18261;53.648;9.910;2023-10-08T05:14:02;10.93;;;2.55;;
31652;SDS011;18261;53.648;9.910;2023-10-08T05:16:31;11.25;;;2.20;;
31652;SDS011;18261;53.648;9.910;2023-10-08T05:19:08;9.15;;;1.95;;
31652;SDS011;18261;53.648;9.910;2023-10-08T05:21:52;8.88;;;2.00;;
31652;SDS011;18261;53.648;9.910;2023-10-08T05:24:31;9.68;;;2.17;;
31652;SDS011;18261;53.648;9.910;2023-10-08T05:27:03;15.80;;;2.58;;
31652;SDS011;18261;53.648;9.910;2023-10-08T05:30:03;13.25;;;2.50;;
31652;SDS011;18261;53.648;9.910;2023-10-08T05:32:52;10.20;;;2.08;;
31652;SDS011;18261;53.648;9.910;2023-10-08T05:35:35;10.73;;;2.47;;
31652;SDS011;18261;53.648;9.910;2023-10-08T05:38:10;9.57;;;2.40;;
31652;SDS011;18261;53.648;9.910;2023-10-08T05:40:55;12.45;;;2.38;;
31652;SDS011;18261;53.648;9.910;2023-10-08T05:43:22;5.75;;;2.30;;
31652;SDS011;18261;53.648;9.910;2023-10-08T05:46:14;11.80;;;1.65;;
31652;SDS011;18261;53.648;9.910;2023-10-08T05:48:50;22.67;;;11.38;;
31652;SDS011;18261;53.648;9.910;2023-10-08T05:51:32;18.60;;;10.75;;
31652;SDS011;18261;53.648;9.910;2023-10-08T05:54:16;11.27;;;4.20;;
31652;SDS011;18261;53.648;9.910;2023-10-08T05:56:52;8.30;;;2.70;;
31652;SDS011;18261;53.648;9.910;2023-10-08T06:02:20;9.85;;;1.98;;
31652;SDS011;18261;53.648;9.910;2023-10-08T06:05:08;3.92;;;2.00;;
31652;SDS011;18261;53.648;9.910;2023-10-08T06:07:50;6.90;;;2.00;;
31652;SDS011;18261;53.648;9.910;2023-10-08T06:15:37;7.70;;;2.58;;
31652;SDS011;18261;53.648;9.910;2023-10-08T06:18:34;6.90;;;2.03;;
31652;SDS011;18261;53.648;9.910;2023-10-08T06:21:03;9.38;;;2.10;;
31652;SDS011;18261;53.648;9.910;2023-10-08T06:23:34;8.20;;;2.60;;
31652;SDS011;18261;53.648;9.910;2023-10-08T06:26:00;5.47;;;2.00;;
31652;SDS011;18261;53.648;9.910;2023-10-08T06:28:39;13.75;;;2.50;;
31652;SDS011;18261;53.648;9.910;2023-10-08T06:31:06;11.13;;;3.38;;
31652;SDS011;18261;53.648;9.910;2023-10-08T06:33:37;11.20;;;3.40;;
31652;SDS011;18261;53.648;9.910;2023-10-08T06:36:03;11.98;;;3.05;;
31652;SDS011;18261;53.648;9.910;2023-10-08T06:38:36;10.82;;;2.50;;
31652;SDS011;18261;53.648;9.910;2023-10-08T06:41:03;8.57;;;2.40;;
31652;SDS011;18261;53.648;9.910;2023-10-08T06:43:43;11.43;;;3.95;;
31652;SDS011;18261;53.648;9.910;2023-10-08T06:46:13;12.95;;;2.53;;
31652;SDS011;18261;53.648;9.910;2023-10-08T06:48:39;8.50;;;2.40;;
31652;SDS011;18261;53.648;9.910;2023-10-08T06:51:09;8.10;;;2.25;;
31652;SDS011;18261;53.648;9.910;2023-10-08T06:53:39;8.30;;;2.00;;
31652;SDS011;18261;53.648;9.910;2023-10-08T06:56:05;10.63;;;1.75;;
31652;SDS011;18261;53.648;9.910;2023-10-08T06:58:31;10.70;;;2.30;;
31652;SDS011;18261;53.648;9.910;2023-10-08T07:00:57;10.70;;;2.38;;
31652;SDS011;18261;53.648;9.910;2023-10-08T07:03:24;12.00;;;3.38;;
31652;SDS011;18261;53.648;9.910;2023-10-08T07:05:50;10.52;;;3.42;;
31652;SDS011;18261;53.648;9.910;2023-10-08T07:08:23;16.20;;;3.60;;
31652;SDS011;18261;53.648;9.910;2023-10-08T07:10:52;8.93;;;2.35;;
31652;SDS011;18261;53.648;9.910;2023-10-08T07:13:21;14.05;;;2.22;;
31652;SDS011;18261;53.648;9.910;2023-10-08T07:15:48;8.52;;;1.90;;
31652;SDS011;18261;53.648;9.910;2023-10-08T07:18:15;15.90;;;3.80;;
31652;SDS011;18261;53.648;9.910;2023-10-08T07:20:49;13.90;;;3.15;;
31652;SDS011;18261;53.648;9.910;2023-10-08T07:23:19;10.93;;;3.75;;
31652;SDS011;18261;53.648;9.910;2023-10-08T07:25:46;10.30;;;2.67;;
31652;SDS011;18261;53.648;9.910;2023-10-08T07:28:17;9.85;;;2.20;;
31652;SDS011;18261;53.648;9.910;2023-10-08T07:30:44;9.68;;;3.03;;
31652;SDS011;18261;53.648;9.910;2023-10-08T07:33:10;11.43;;;2.53;;
31652;SDS011;18261;53.648;9.910;2023-10-08T07:35:46;13.32;;;2.70;;
31652;SDS011;18261;53.648;9.910;2023-10-08T07:38:36;11.60;;;2.55;;
31652;SDS011;18261;53.648;9.910;2023-10-08T07:41:03;10.27;;;2.60;;
31652;SDS011;18261;53.648;9.910;2023-10-08T07:43:30;11.48;;;2.60;;
31652;SDS011;18261;53.648;9.910;2023-10-08T07:45:57;13.07;;;3.20;;
31652;SDS011;18261;53.648;9.910;2023-10-08T07:48:23;11.13;;;2.50;;
31652;SDS011;18261;53.648;9.910;2023-10-08T07:50:55;9.50;;;1.85;;
31652;SDS011;18261;53.648;9.910;2023-10-08T07:53:21;6.40;;;1.98;;
31652;SDS011;18261;53.648;9.910;2023-10-08T07:55:49;8.02;;;1.73;;
31652;SDS011;18261;53.648;9.910;2023-10-08T07:58:16;12.48;;;2.42;;
31652;SDS011;18261;53.648;9.910;2023-10-08T08:00:43;11.73;;;2.00;;
31652;SDS011;18261;53.648;9.910;2023-10-08T08:03:20;13.65;;;1.90;;
31652;SDS011;18261;53.648;9.910;2023-10-08T08:05:46;12.43;;;2.55;;
31652;SDS011;18261;53.648;9.910;2023-10-08T08:08:13;11.73;;;2.45;;
31652;SDS011;18261;53.648;9.910;2023-10-08T08:10:43;9.02;;;2.42;;
31652;SDS011;18261;53.648;9.910;2023-10-08T08:13:09;11.45;;;2.00;;
31652;SDS011;18261;53.648;9.910;2023-10-08T08:15:35;8.07;;;2.10;;
31652;SDS011;18261;53.648;9.910;2023-10-08T08:18:07;11.80;;;2.10;;
31652;SDS011;18261;53.648;9.910;2023-10-08T08:20:35;10.77;;;2.10;;
31652;SDS011;18261;53.648;9.910;2023-10-08T08:23:08;15.02;;;2.17;;
31652;SDS011;18261;53.648;9.910;2023-10-08T08:25:38;11.13;;;2.03;;
31652;SDS011;18261;53.648;9.910;2023-10-08T08:28:22;10.73;;;2.35;;
31652;SDS011;18261;53.648;9.910;2023-10-08T08:30:50;8.15;;;2.03;;
31652;SDS011;18261;53.648;9.910;2023-10-08T08:33:20;9.35;;;2.30;;
31652;SDS011;18261;53.648;9.910;2023-10-08T08:35:59;8.43;;;2.22;;
31652;SDS011;18261;53.648;9.910;2023-10-08T08:38:26;9.57;;;2.30;;
31652;SDS011;18261;53.648;9.910;2023-10-08T08:41:03;11.13;;;3.33;;
31652;SDS011;18261;53.648;9.910;2023-10-08T08:43:35;7.68;;;2.05;;
31652;SDS011;18261;53.648;9.910;2023-10-08T08:46:04;14.00;;;2.40;;
31652;SDS011;18261;53.648;9.910;2023-10-08T08:48:32;12.23;;;2.17;;
31652;SDS011;18261;53.648;9.910;2023-10-08T08:51:00;14.30;;;1.88;;
31652;SDS011;18261;53.648;9.910;2023-10-08T08:53:26;8.27;;;2.00;;
31652;SDS011;18261;53.648;9.910;2023-10-08T08:55:53;8.00;;;1.90;;
31652;SDS011;18261;53.648;9.910;2023-10-08T08:58:21;9.48;;;2.00;;
31652;SDS011;18261;53.648;9.910;2023-10-08T09:00:50;6.22;;;1.83;;
31652;SDS011;18261;53.648;9.910;2023-10-08T09:03:17;7.93;;;2.03;;
31652;SDS011;18261;53.648;9.910;2023-10-08T09:05:44;9.13;;;2.25;;
31652;SDS011;18261;53.648;9.910;2023-10-08T09:08:16;11.77;;;3.88;;
31652;SDS011;18261;53.648;9.910;2023-10-08T09:10:43;7.15;;;2.90;;
31652;SDS011;18261;53.648;9.910;2023-10-08T09:13:19;11.52;;;1.98;;
31652;SDS011;18261;53.648;9.910;2023-10-08T09:15:50;8.43;;;2.25;;
31652;SDS011;18261;53.648;9.910;2023-10-08T09:18:16;7.95;;;2.15;;
31652;SDS011;18261;53.648;9.910;2023-10-08T09:20:43;5.90;;;1.65;;
31652;SDS011;18261;53.648;9.910;2023-10-08T09:25:42;9.82;;;1.63;;
31652;SDS011;18261;53.648;9.910;2023-10-08T09:28:09;9.80;;;2.03;;
31652;SDS011;18261;53.648;9.910;2023-10-08T09:30:38;8.55;;;2.42;;
31652;SDS011;18261;53.648;9.910;2023-10-08T09:33:09;8.52;;;2.20;;
31652;SDS011;18261;53.648;9.910;2023-10-08T09:35:36;6.82;;;1.92;;
31652;SDS011;18261;53.648;9.910;2023-10-08T09:38:02;12.07;;;1.90;;
31652;SDS011;18261;53.648;9.910;2023-10-08T09:40:28;7.88;;;2.70;;
31652;SDS011;18261;53.648;9.910;2023-10-08T09:42:55;3.70;;;1.48;;
31652;SDS011;18261;53.648;9.910;2023-10-08T09:45:21;5.28;;;1.48;;
31652;SDS011;18261;53.648;9.910;2023-10-08T09:47:53;5.32;;;1.50;;
31652;SDS011;18261;53.648;9.910;2023-10-08T09:50:31;7.47;;;1.50;;
31652;SDS011;18261;53.648;9.910;2023-10-08T09:53:01;6.00;;;1.35;;
31652;SDS011;18261;53.648;9.910;2023-10-08T09:55:33;4.53;;;1.60;;
31652;SDS011;18261;53.648;9.910;2023-10-08T09:57:59;9.02;;;1.83;;
31652;SDS011;18261;53.648;9.910;2023-10-08T10:00:26;6.05;;;1.30;;
31652;SDS011;18261;53.648;9.910;2023-10-08T10:03:02;6.78;;;2.03;;
31652;SDS011;18261;53.648;9.910;2023-10-08T10:05:37;5.78;;;1.90;;
31652;SDS011;18261;53.648;9.910;2023-10-08T10:08:03;11.63;;;1.60;;
31652;SDS011;18261;53.648;9.910;2023-10-08T10:10:35;7.63;;;1.38;;
31652;SDS011;18261;53.648;9.910;2023-10-08T10:13:06;6.18;;;2.17;;
31652;SDS011;18261;53.648;9.910;2023-10-08T10:15:41;8.50;;;2.10;;
31652;SDS011;18261;53.648;9.910;2023-10-08T10:18:08;5.80;;;1.48;;
31652;SDS011;18261;53.648;9.910;2023-10-08T10:20:38;5.40;;;1.48;;
31652;SDS011;18261;53.648;9.910;2023-10-08T10:23:34;7.15;;;2.70;;
31652;SDS011;18261;53.648;9.910;2023-10-08T10:25:51;8.15;;;2.47;;
31652;SDS011;18261;53.648;9.910;2023-10-08T10:28:22;6.43;;;2.00;;
31652;SDS011;18261;53.648;9.910;2023-10-08T10:30:49;5.75;;;1.83;;
31652;SDS011;18261;53.648;9.910;2023-10-08T10:33:16;6.18;;;1.42;;
31652;SDS011;18261;53.648;9.910;2023-10-08T10:35:42;13.80;;;2.22;;
31652;SDS011;18261;53.648;9.910;2023-10-08T10:38:15;8.55;;;2.05;;
31652;SDS011;18261;53.648;9.910;2023-10-08T10:40:48;7.22;;;1.90;;
31652;SDS011;18261;53.648;9.910;2023-10-08T10:43:25;7.00;;;1.63;;
31652;SDS011;18261;53.648;9.910;2023-10-08T10:46:04;6.57;;;1.20;;
31652;SDS011;18261;53.648;9.910;2023-10-08T10:48:50;4.40;;;1.35;;
31652;SDS011;18261;53.648;9.910;2023-10-08T10:51:42;8.48;;;1.35;;
31652;SDS011;18261;53.648;9.910;2023-10-08T10:54:08;3.65;;;1.13;;
31652;SDS011;18261;53.648;9.910;2023-10-08T10:56:45;6.50;;;1.52;;
31652;SDS011;18261;53.648;9.910;2023-10-08T10:59:12;8.43;;;2.03;;
31652;SDS011;18261;53.648;9.910;2023-10-08T11:01:50;10.02;;;1.58;;
31652;SDS011;18261;53.648;9.910;2023-10-08T11:04:32;5.60;;;1.70;;
31652;SDS011;18261;53.648;9.910;2023-10-08T11:07:10;5.95;;;1.20;;
31652;SDS011;18261;53.648;9.910;2023-10-08T11:09:37;9.38;;;1.30;;
31652;SDS011;18261;53.648;9.910;2023-10-08T11:12:04;3.53;;;1.40;;
31652;SDS011;18261;53.648;9.910;2023-10-08T11:14:36;3.72;;;1.20;;
31652;SDS011;18261;53.648;9.910;2023-10-08T11:17:10;6.30;;;1.83;;
31652;SDS011;18261;53.648;9.910;2023-10-08T11:19:36;5.18;;;1.50;;
31652;SDS011;18261;53.648;9.910;2023-10-08T11:22:02;5.65;;;1.23;;
31652;SDS011;18261;53.648;9.910;2023-10-08T11:24:31;4.20;;;1.50;;
31652;SDS011;18261;53.648;9.910;2023-10-08T11:27:00;3.17;;;1.15;;
31652;SDS011;18261;53.648;9.910;2023-10-08T11:29:46;9.75;;;1.92;;
31652;SDS011;18261;53.648;9.910;2023-10-08T11:32:12;6.75;;;2.38;;
31652;SDS011;18261;53.648;9.910;2023-10-08T11:34:40;10.45;;;1.85;;
31652;SDS011;18261;53.648;9.910;2023-10-08T11:37:06;4.50;;;1.38;;
31652;SDS011;18261;53.648;9.910;2023-10-08T11:39:47;5.10;;;1.52;;
31652;SDS011;18261;53.648;9.910;2023-10-08T11:42:14;6.35;;;1.30;;
31652;SDS011;18261;53.648;9.910;2023-10-08T11:44:59;5.13;;;1.52;;
31652;SDS011;18261;53.648;9.910;2023-10-08T11:47:33;6.32;;;2.38;;
31652;SDS011;18261;53.648;9.910;2023-10-08T11:50:03;8.48;;;2.88;;
31652;SDS011;18261;53.648;9.910;2023-10-08T11:52:36;5.32;;;1.92;;
31652;SDS011;18261;53.648;9.910;2023-10-08T11:55:07;15.57;;;6.47;;
31652;SDS011;18261;53.648;9.910;2023-10-08T11:57:33;6.20;;;2.33;;
31652;SDS011;18261;53.648;9.910;2023-10-08T12:00:01;4.30;;;1.40;;
31652;SDS011;18261;53.648;9.910;2023-10-08T12:02:42;3.42;;;1.38;;
31652;SDS011;18261;53.648;9.910;2023-10-08T12:05:09;7.00;;;1.40;;
31652;SDS011;18261;53.648;9.910;2023-10-08T12:07:44;6.43;;;1.40;;
31652;SDS011;18261;53.648;9.910;2023-10-08T12:10:10;6.45;;;1.45;;
31652;SDS011;18261;53.648;9.910;2023-10-08T12:12:36;4.47;;;1.50;;
31652;SDS011;18261;53.648;9.910;2023-10-08T12:15:02;4.60;;;1.50;;
31652;SDS011;18261;53.648;9.910;2023-10-08T12:17:28;4.53;;;1.60;;
31652;SDS011;18261;53.648;9.910;2023-10-08T12:20:06;8.20;;;1.95;;
31652;SDS011;18261;53.648;9.910;2023-10-08T12:22:50;4.88;;;1.52;;
31652;SDS011;18261;53.648;9.910;2023-10-08T12:25:17;5.30;;;1.30;;
31652;SDS011;18261;53.648;9.910;2023-10-08T12:27:42;2.72;;;1.15;;
31652;SDS011;18261;53.648;9.910;2023-10-08T12:30:09;4.68;;;1.63;;
31652;SDS011;18261;53.648;9.910;2023-10-08T12:32:38;4.07;;;1.30;;
31652;SDS011;18261;53.648;9.910;2023-10-08T12:35:07;6.47;;;1.52;;
31652;SDS011;18261;53.648;9.910;2023-10-08T12:37:38;3.10;;;1.27;;
31652;SDS011;18261;53.648;9.910;2023-10-08T12:40:04;6.50;;;1.45;;
31652;SDS011;18261;53.648;9.910;2023-10-08T12:42:37;7.13;;;1.50;;
31652;SDS011;18261;53.648;9.910;2023-10-08T12:45:09;2.90;;;1.35;;
31652;SDS011;18261;53.648;9.910;2023-10-08T12:47:38;3.17;;;1.55;;
31652;SDS011;18261;53.648;9.910;2023-10-08T12:50:04;3.70;;;1.25;;
31652;SDS011;18261;53.648;9.910;2023-10-08T12:52:33;2.60;;;1.30;;
31652;SDS011;18261;53.648;9.910;2023-10-08T12:55:07;6.18;;;1.70;;
31652;SDS011;18261;53.648;9.910;2023-10-08T12:57:33;4.75;;;1.40;;
31652;SDS011;18261;53.648;9.910;2023-10-08T13:00:02;5.15;;;1.60;;
31652;SDS011;18261;53.648;9.910;2023-10-08T13:02:29;3.47;;;1.42;;
31652;SDS011;18261;53.648;9.910;2023-10-08T13:04:55;2.88;;;1.10;;
31652;SDS011;18261;53.648;9.910;2023-10-08T13:07:23;3.72;;;1.60;;
31652;SDS011;18261;53.648;9.910;2023-10-08T13:09:51;6.20;;;1.92;;
31652;SDS011;18261;53.648;9.910;2023-10-08T13:12:17;6.85;;;2.00;;
31652;SDS011;18261;53.648;9.910;2023-10-08T13:14:43;2.40;;;1.60;;
31652;SDS011;18261;53.648;9.910;2023-10-08T13:17:10;10.55;;;1.55;;
31652;SDS011;18261;53.648;9.910;2023-10-08T13:19:38;3.95;;;1.40;;
31652;SDS011;18261;53.648;9.910;2023-10-08T13:22:04;6.07;;;2.28;;
31652;SDS011;18261;53.648;9.910;2023-10-08T13:24:32;8.82;;;2.30;;
31652;SDS011;18261;53.648;9.910;2023-10-08T13:27:00;6.45;;;2.55;;
31652;SDS011;18261;53.648;9.910;2023-10-08T13:29:26;5.35;;;2.65;;
31652;SDS011;18261;53.648;9.910;2023-10-08T13:31:57;6.82;;;1.83;;
31652;SDS011;18261;53.648;9.910;2023-10-08T13:34:23;3.75;;;1.92;;
31652;SDS011;18261;53.648;9.910;2023-10-08T13:36:52;6.15;;;1.88;;
31652;SDS011;18261;53.648;9.910;2023-10-08T13:39:19;6.95;;;1.70;;
31652;SDS011;18261;53.648;9.910;2023-10-08T13:41:46;5.10;;;1.63;;
31652;SDS011;18261;53.648;9.910;2023-10-08T13:44:17;7.28;;;1.58;;
31652;SDS011;18261;53.648;9.910;2023-10-08T13:46:51;4.90;;;2.10;;
31652;SDS011;18261;53.648;9.910;2023-10-08T13:49:22;6.65;;;2.03;;
31652;SDS011;18261;53.648;9.910;2023-10-08T13:51:48;5.10;;;1.58;;
31652;SDS011;18261;53.648;9.910;2023-10-08T13:54:21;9.77;;;2.63;;
31652;SDS011;18261;53.648;9.910;2023-10-08T13:56:47;10.10;;;2.30;;
31652;SDS011;18261;53.648;9.910;2023-10-08T13:59:13;6.18;;;2.55;;
31652;SDS011;18261;53.648;9.910;2023-10-08T14:01:41;8.98;;;3.40;;
31652;SDS011;18261;53.648;9.910;2023-10-08T14:04:16;11.38;;;3.50;;
31652;SDS011;18261;53.648;9.910;2023-10-08T14:06:45;9.25;;;2.03;;
31652;SDS011;18261;53.648;9.910;2023-10-08T14:09:21;4.65;;;1.85;;
31652;SDS011;18261;53.648;9.910;2023-10-08T14:11:55;12.73;;;2.65;;
31652;SDS011;18261;53.648;9.910;2023-10-08T14:14:21;6.18;;;2.10;;
31652;SDS011;18261;53.648;9.910;2023-10-08T14:16:54;7.10;;;2.13;;
31652;SDS011;18261;53.648;9.910;2023-10-08T14:19:24;7.15;;;2.28;;
31652;SDS011;18261;53.648;9.910;2023-10-08T14:22:00;4.78;;;2.05;;
31652;SDS011;18261;53.648;9.910;2023-10-08T14:24:28;9.07;;;3.95;;
31652;SDS011;18261;53.648;9.910;2023-10-08T14:26:57;14.90;;;4.72;;
31652;SDS011;18261;53.648;9.910;2023-10-08T14:29:28;7.25;;;2.47;;
31652;SDS011;18261;53.648;9.910;2023-10-08T14:31:54;9.18;;;3.08;;
31652;SDS011;18261;53.648;9.910;2023-10-08T14:34:22;8.57;;;3.08;;
31652;SDS011;18261;53.648;9.910;2023-10-08T14:37:06;12.82;;;3.05;;
31652;SDS011;18261;53.648;9.910;2023-10-08T14:39:51;8.23;;;2.58;;
31652;SDS011;18261;53.648;9.910;2023-10-08T14:42:35;6.20;;;2.08;;
31652;SDS011;18261;53.648;9.910;2023-10-08T14:45:20;7.07;;;2.15;;
31652;SDS011;18261;53.648;9.910;2023-10-08T14:47:47;10.40;;;2.70;;
31652;SDS011;18261;53.648;9.910;2023-10-08T14:50:14;7.38;;;2.00;;
31652;SDS011;18261;53.648;9.910;2023-10-08T14:52:44;4.28;;;2.00;;
31652;SDS011;18261;53.648;9.910;2023-10-08T14:55:10;6.15;;;1.88;;
31652;SDS011;18261;53.648;9.910;2023-10-08T14:57:37;7.65;;;2.47;;
31652;SDS011;18261;53.648;9.910;2023-10-08T15:00:04;7.05;;;2.20;;
31652;SDS011;18261;53.648;9.910;2023-10-08T15:02:30;7.38;;;2.40;;
31652;SDS011;18261;53.648;9.910;2023-10-08T15:04:58;10.25;;;2.90;;
31652;SDS011;18261;53.648;9.910;2023-10-08T15:07:26;7.00;;;2.63;;
31652;SDS011;18261;53.648;9.910;2023-10-08T15:09:53;8.38;;;2.35;;
31652;SDS011;18261;53.648;9.910;2023-10-08T15:12:22;5.78;;;2.63;;
31652;SDS011;18261;53.648;9.910;2023-10-08T15:14:50;11.00;;;3.17;;
31652;SDS011;18261;53.648;9.910;2023-10-08T15:17:17;15.88;;;7.07;;
31652;SDS011;18261;53.648;9.910;2023-10-08T15:19:43;12.75;;;3.80;;